Terminal Aerodrome Forecast
Issued by NWS Louisville, KY

Home | Current Version | Previous Version | Text Only | Print | Product List | Glossary On
Versions: 1 2 3 4 5 6 7 8 9 10 11 12 13 14 15
000
FTUS43 KLMK 291120
TAFLEX
TAF
KLEX 291120Z 2912/3012 VRB04KT P6SM SCT250
      TEMPO 2912/2913 4SM BR
     FM291600 07008KT P6SM SCT040
     FM291900 07008KT P6SM VCTS SCT040CB BKN250
     FM300000 05006KT P6SM FEW050 SCT250=

USA.gov is the U.S. government's official web portal to all federal, state and local government web resources and services.